Kintyre, ND (58549)

6:49 AM CST on January 29, 2015 (GMT -0600)
58th St SE | Change Station
CLOSE
Current Station
Personal Weather Station
Location: Napoleon, ND
Elevation: 2014 ft
Nearby Weather Stations

Elev 2014 ft 46.57 °N, 99.72 °W | Updated 4 seconds ago

Overcast
Overcast
24.6 °F
Feels Like 17 °F
N
6.0
Wind Variable Wind from North
Gusts 13.0 mph

Today
High -- | Low -- °F
--% Chance of Precip.
Yesterday
High -- | Low -- °F
Precip. -- in
8:07 AM 5:39 PM
Waxing Gibbous, 74% visible
Pressure 30.36 in
Visibility 10.0 miles
Clouds Overcast 1800 ft
Windchill 17 °F
Dew Point 22 °F
Humidity 88%
Rainfall -999.00 in
Snow Depth Not available.
UV 0 out of 12
Pollen .10 out of 12
Air Quality Not available.
Flu Activity Not available.
METAR K7L2 291235Z AUTO 34018G24KT 10SM OVC018 M03/M04 A3036 RMK AO2

More Conditions Fewer Conditions

Pressure 30.36 in
Visibility 10.0 miles
Clouds Overcast 1800 ft
Windchill 17 °F
Dew Point 22 °F
Humidity 88%
Rainfall -999.00 in
Snow Depth Not available.
UV 0 out of 12
Pollen .10 out of 12
Air Quality Not available.
Flu Activity Not available.
METAR K7L2 291235Z AUTO 34018G24KT 10SM OVC018 M03/M04 A3036 RMK AO2

More Conditions Fewer Conditions

10-Day Weather Forecast

Almanac

Astronomy

Jan. 29, 2015 Rise Set
Actual Time
Civil Twilight
Nautical Twilight
Astronomical Twilight
Moon
Length of Visible Light
Length of Day
Tomorrow will be .
, % of the Moon is Illuminated

Today's Extremes

State Highs State Lows

Community

WunderPhotos

Upload Photos

1,791,420 photos uploaded!

WunderBlogs® & News

Nearby

Air Quality

  Air Quality AQ Index Pollutant
Not available.

Snow Depth

Station Depth Elevation

Earthquake Activity

City Distance Mag. Time & Date
Minimum magnitude displayed is 2.5.

Coastal Water Temperatures

Place Temperature

Nearby Weather Stations